createdAt,value
2019-01-02T00:00:49.764Z,1025.89
2019-01-02T00:01:49.764Z,1025.87
2019-01-02T00:02:49.743Z,1025.87
2019-01-02T00:03:49.730Z,1025.91
2019-01-02T00:04:49.719Z,1025.90
2019-01-02T00:05:49.710Z,1025.99
2019-01-02T00:06:49.708Z,1026.02
2019-01-02T00:07:49.684Z,1025.99
2019-01-02T00:08:49.673Z,1025.98
2019-01-02T00:09:49.662Z,1025.99
2019-01-02T00:10:49.650Z,1026.05
2019-01-02T00:11:49.648Z,1025.99
2019-01-02T00:12:49.630Z,1025.93
2019-01-02T00:13:49.618Z,1025.94
2019-01-02T00:14:49.606Z,1025.96
2019-01-02T00:15:49.593Z,1025.99
2019-01-02T00:16:49.598Z,1025.93
2019-01-02T00:17:49.574Z,1026.00
2019-01-02T00:18:49.560Z,1026.00
2019-01-02T00:19:49.558Z,1026.04
2019-01-02T00:20:49.539Z,1026.09
2019-01-02T00:21:49.526Z,1026.06
2019-01-02T00:22:49.527Z,1026.08
2019-01-02T00:23:49.504Z,1026.11
2019-01-02T00:24:49.492Z,1026.06
2019-01-02T00:25:49.480Z,1026.02
2019-01-02T00:26:49.468Z,1026.05
2019-01-02T00:27:49.466Z,1026.10
2019-01-02T00:28:49.448Z,1026.08
2019-01-02T00:29:49.436Z,1026.13
2019-01-02T00:30:49.423Z,1026.16
2019-01-02T00:31:49.412Z,1026.14
2019-01-02T00:32:49.417Z,1026.14
2019-01-02T00:33:49.392Z,1026.18
2019-01-02T00:34:49.380Z,1026.09
2019-01-02T00:35:49.366Z,1026.14
2019-01-02T00:36:49.357Z,1026.10
2019-01-02T00:37:49.345Z,1026.06
2019-01-02T00:38:49.340Z,1026.10
2019-01-02T00:39:49.322Z,1026.06
2019-01-02T00:40:49.309Z,1026.08
2019-01-02T00:41:49.298Z,1026.04
2019-01-02T00:42:49.293Z,1025.97
2019-01-02T00:43:49.288Z,1026.01
2019-01-02T00:44:49.265Z,1026.07
2019-01-02T00:45:49.253Z,1026.07
2019-01-02T00:46:49.242Z,1026.07
2019-01-02T00:47:49.235Z,1026.07
2019-01-02T00:48:49.218Z,1026.05
2019-01-02T00:49:49.219Z,1026.05
2019-01-02T00:50:49.196Z,1026.02
2019-01-02T00:51:49.184Z,1026.04
2019-01-02T00:52:49.173Z,1026.10
2019-01-02T00:53:49.163Z,1026.10
2019-01-02T00:54:49.163Z,1026.12
2019-01-02T00:55:49.140Z,1026.09
2019-01-02T00:56:49.129Z,1026.17
2019-01-02T00:57:49.116Z,1026.15
2019-01-02T00:58:49.109Z,1026.12
2019-01-02T00:59:49.102Z,1026.12
2019-01-02T01:00:49.096Z,1026.07
2019-01-02T01:01:49.072Z,1026.20
2019-01-02T01:02:49.062Z,1026.16
2019-01-02T01:03:49.050Z,1026.24
2019-01-02T01:04:49.053Z,1026.24
2019-01-02T01:05:49.031Z,1026.22
2019-01-02T01:06:49.016Z,1026.19
2019-01-02T01:07:49.005Z,1026.27
2019-01-02T01:08:48.996Z,1026.28
2019-01-02T01:09:48.985Z,1026.18
2019-01-02T01:10:48.981Z,1026.20
2019-01-02T01:11:48.962Z,1026.29
2019-01-02T01:12:48.955Z,1026.27
2019-01-02T01:13:48.946Z,1026.25
2019-01-02T01:14:48.927Z,1026.28
2019-01-02T01:15:48.926Z,1026.26
2019-01-02T01:16:48.906Z,1026.30
2019-01-02T01:17:48.894Z,1026.34
2019-01-02T01:18:48.884Z,1026.28
2019-01-02T01:19:48.874Z,1026.30
2019-01-02T01:20:48.874Z,1026.27
2019-01-02T01:21:48.850Z,1026.28
2019-01-02T01:22:48.839Z,1026.32
2019-01-02T01:23:48.829Z,1026.38
2019-01-02T01:24:48.817Z,1026.38
2019-01-02T01:25:48.806Z,1026.48
2019-01-02T01:26:48.805Z,1026.46
2019-01-02T01:27:48.784Z,1026.35
2019-01-02T01:28:48.775Z,1026.41
2019-01-02T01:29:48.764Z,1026.42
2019-01-02T01:30:48.758Z,1026.45
2019-01-02T01:31:48.753Z,1026.54
2019-01-02T01:32:48.736Z,1026.48
2019-01-02T01:33:48.721Z,1026.47
2019-01-02T01:34:48.707Z,1026.46
2019-01-02T01:35:48.698Z,1026.46
2019-01-02T01:36:48.686Z,1026.48
2019-01-02T01:37:48.696Z,1026.48
2019-01-02T01:38:48.665Z,1026.52
2019-01-02T01:39:48.654Z,1026.52
2019-01-02T01:40:48.643Z,1026.52
2019-01-02T01:41:48.632Z,1026.55
2019-01-02T01:42:48.628Z,1026.56
2019-01-02T01:43:48.611Z,1026.52
2019-01-02T01:44:48.599Z,1026.53
2019-01-02T01:45:48.587Z,1026.49
2019-01-02T01:46:48.575Z,1026.53
2019-01-02T01:47:48.574Z,1026.54
2019-01-02T01:48:48.558Z,1026.61
2019-01-02T01:49:48.548Z,1026.52
2019-01-02T01:50:48.531Z,1026.61
2019-01-02T01:51:48.522Z,1026.57
2019-01-02T01:52:48.522Z,1026.56
2019-01-02T01:53:48.501Z,1026.60
2019-01-02T01:54:48.489Z,1026.57
2019-01-02T01:55:48.479Z,1026.56
2019-01-02T01:56:48.467Z,1026.46
2019-01-02T01:57:48.454Z,1026.58
2019-01-02T01:58:48.454Z,1026.59
2019-01-02T01:59:48.434Z,1026.65
2019-01-02T02:00:48.426Z,1026.65
2019-01-02T02:01:48.441Z,1026.64
2019-01-02T02:02:48.398Z,1026.62
2019-01-02T02:03:48.421Z,1026.58
2019-01-02T02:04:48.377Z,1026.64
2019-01-02T02:05:48.364Z,1026.65
2019-01-02T02:06:48.357Z,1026.63
2019-01-02T02:07:48.344Z,1026.73
2019-01-02T02:08:48.342Z,1026.67
2019-01-02T02:09:48.321Z,1026.78
2019-01-02T02:10:48.310Z,1026.73
2019-01-02T02:11:48.301Z,1026.69
2019-01-02T02:12:48.330Z,1026.66
2019-01-02T02:13:48.289Z,1026.75
2019-01-02T02:14:48.267Z,1026.76
2019-01-02T02:15:48.256Z,1026.71
2019-01-02T02:16:48.244Z,1026.66
2019-01-02T02:17:48.231Z,1026.64
2019-01-02T02:18:48.221Z,1026.62
2019-01-02T02:19:48.220Z,1026.64
2019-01-02T02:20:48.198Z,1026.70
2019-01-02T02:21:48.187Z,1026.64
2019-01-02T02:22:48.179Z,1026.66
2019-01-02T02:23:48.166Z,1026.75
2019-01-02T02:24:48.169Z,1026.80
2019-01-02T02:25:48.143Z,1026.86
2019-01-02T02:26:48.134Z,1026.84
2019-01-02T02:27:48.121Z,1026.88
2019-01-02T02:28:48.113Z,1026.84
2019-01-02T02:29:48.112Z,1026.83
2019-01-02T02:30:48.160Z,1026.72
2019-01-02T02:31:48.078Z,1026.78
2019-01-02T02:32:48.067Z,1026.75
2019-01-02T02:33:48.061Z,1026.84
2019-01-02T02:34:48.048Z,1026.82
2019-01-02T02:35:48.042Z,1026.85
2019-01-02T02:36:48.025Z,1026.92
2019-01-02T02:37:48.013Z,1026.80
2019-01-02T02:38:48.001Z,1026.80
2019-01-02T02:39:47.989Z,1026.78
2019-01-02T02:40:47.990Z,1026.79
2019-01-02T02:41:47.966Z,1026.75
2019-01-02T02:42:47.957Z,1026.75
2019-01-02T02:43:47.951Z,1026.80
2019-01-02T02:44:47.938Z,1026.87
2019-01-02T02:45:47.923Z,1026.76
2019-01-02T02:46:47.928Z,1026.72
2019-01-02T02:47:47.901Z,1026.84
2019-01-02T02:48:47.888Z,1026.86
2019-01-02T02:49:47.878Z,1026.90
2019-01-02T02:50:47.869Z,1026.87
2019-01-02T02:51:47.865Z,1026.84
2019-01-02T02:52:47.846Z,1026.84
2019-01-02T02:53:47.835Z,1026.91
2019-01-02T02:54:47.821Z,1026.82
2019-01-02T02:55:47.817Z,1026.85
2019-01-02T02:56:47.812Z,1026.82
2019-01-02T02:57:47.793Z,1026.85
2019-01-02T02:58:47.778Z,1026.84
2019-01-02T02:59:47.765Z,1026.79
2019-01-02T03:00:47.759Z,1026.81
2019-01-02T03:01:47.752Z,1026.70
2019-01-02T03:02:47.736Z,1026.77
2019-01-02T03:03:47.722Z,1026.80
2019-01-02T03:04:47.711Z,1026.82
2019-01-02T03:05:47.698Z,1026.86
2019-01-02T03:06:48.549Z,1026.89
2019-01-02T03:07:48.677Z,1026.84
2019-01-02T03:08:47.667Z,1026.81
2019-01-02T03:09:47.653Z,1026.88
2019-01-02T03:10:47.642Z,1026.87
2019-01-02T03:11:47.633Z,1026.81
2019-01-02T03:12:47.633Z,1026.79
2019-01-02T03:13:47.609Z,1026.84
2019-01-02T03:14:47.598Z,1026.77
2019-01-02T03:15:47.586Z,1026.76
2019-01-02T03:16:47.575Z,1026.75
2019-01-02T03:17:47.584Z,1026.74
2019-01-02T03:18:47.558Z,1026.76
2019-01-02T03:19:47.542Z,1026.73
2019-01-02T03:20:47.531Z,1026.71
2019-01-02T03:21:47.521Z,1026.67
2019-01-02T03:22:47.510Z,1026.73
2019-01-02T03:23:47.509Z,1026.64
2019-01-02T03:24:47.488Z,1026.72
2019-01-02T03:25:47.476Z,1026.69
2019-01-02T03:26:47.465Z,1026.80
2019-01-02T03:27:47.455Z,1026.80
2019-01-02T03:28:47.461Z,1026.72
2019-01-02T03:29:47.431Z,1026.77
2019-01-02T03:30:47.422Z,1026.77
2019-01-02T03:31:47.409Z,1026.82
2019-01-02T03:32:47.406Z,1026.73
2019-01-02T03:33:47.387Z,1026.73
2019-01-02T03:34:47.388Z,1026.74
2019-01-02T03:35:47.366Z,1026.70
2019-01-02T03:36:47.361Z,1026.74
2019-01-02T03:37:47.344Z,1026.72
2019-01-02T03:38:47.331Z,1026.72
2019-01-02T03:39:47.328Z,1026.69
2019-01-02T03:40:47.312Z,1026.77
2019-01-02T03:41:47.298Z,1026.75
2019-01-02T03:42:47.289Z,1026.75
2019-01-02T03:43:47.321Z,1026.78
2019-01-02T03:44:47.284Z,1026.71
2019-01-02T03:45:47.258Z,1026.72
2019-01-02T03:46:47.244Z,1026.72
2019-01-02T03:47:47.232Z,1026.73
2019-01-02T03:48:47.220Z,1026.68
2019-01-02T03:49:47.212Z,1026.68
2019-01-02T03:50:47.217Z,1026.65
2019-01-02T03:51:47.187Z,1026.64
2019-01-02T03:52:47.176Z,1026.67
2019-01-02T03:53:47.165Z,1026.70
2019-01-02T03:54:47.154Z,1026.68
2019-01-02T03:55:47.143Z,1026.71
2019-01-02T03:56:47.145Z,1026.76
2019-01-02T03:57:47.123Z,1026.80
2019-01-02T03:58:47.111Z,1026.80
2019-01-02T03:59:47.101Z,1026.79
2019-01-02T04:00:47.089Z,1026.83
2019-01-02T04:01:47.089Z,1026.76
2019-01-02T04:02:47.069Z,1026.75
2019-01-02T04:03:47.056Z,1026.79
2019-01-02T04:04:47.045Z,1026.72
2019-01-02T04:05:47.035Z,1026.78
2019-01-02T04:06:47.031Z,1026.70
2019-01-02T04:07:47.013Z,1026.81
2019-01-02T04:08:47.003Z,1026.74
2019-01-02T04:09:46.989Z,1026.69
2019-01-02T04:10:46.979Z,1026.66
2019-01-02T04:11:46.990Z,1026.70
2019-01-02T04:12:46.960Z,1026.82
2019-01-02T04:13:46.946Z,1026.73
2019-01-02T04:14:46.935Z,1026.84
2019-01-02T04:15:46.927Z,1026.85
2019-01-02T04:16:46.915Z,1026.92
2019-01-02T04:17:46.913Z,1026.89
2019-01-02T04:18:46.892Z,1026.91
2019-01-02T04:19:46.881Z,1026.84
2019-01-02T04:20:46.870Z,1026.85
2019-01-02T04:21:46.859Z,1026.90
2019-01-02T04:22:46.854Z,1026.81
2019-01-02T04:23:46.835Z,1026.77
2019-01-02T04:24:46.824Z,1026.78
2019-01-02T04:25:46.812Z,1026.73
2019-01-02T04:26:46.801Z,1026.76
2019-01-02T04:27:46.799Z,1026.79
2019-01-02T04:28:46.780Z,1026.88
2019-01-02T04:29:46.769Z,1026.87
2019-01-02T04:30:46.759Z,1026.84
2019-01-02T04:31:46.747Z,1026.86
2019-01-02T04:32:46.755Z,1026.84
2019-01-02T04:33:46.726Z,1026.80
2019-01-02T04:34:46.713Z,1026.81
2019-01-02T04:35:46.706Z,1026.74
2019-01-02T04:36:46.689Z,1026.81
2019-01-02T04:37:46.680Z,1026.85
2019-01-02T04:38:46.684Z,1026.86
2019-01-02T04:39:46.659Z,1026.88
2019-01-02T04:40:46.646Z,1026.91
2019-01-02T04:41:46.639Z,1026.88
2019-01-02T04:42:46.626Z,1026.94
2019-01-02T04:43:46.622Z,1026.84
2019-01-02T04:44:46.601Z,1026.89
2019-01-02T04:45:46.592Z,1026.88
2019-01-02T04:46:46.580Z,1026.92
2019-01-02T04:47:46.567Z,1026.98
2019-01-02T04:48:46.566Z,1027.00
2019-01-02T04:49:46.546Z,1026.97
2019-01-02T04:50:46.536Z,1027.00
2019-01-02T04:51:46.524Z,1026.96
2019-01-02T04:52:46.512Z,1026.93
2019-01-02T04:53:46.520Z,1026.99
2019-01-02T04:54:46.489Z,1026.99
2019-01-02T04:55:46.479Z,1027.04
2019-01-02T04:56:46.469Z,1027.01
2019-01-02T04:57:46.455Z,1027.11
2019-01-02T04:58:46.445Z,1027.09
2019-01-02T04:59:46.444Z,1027.11
2019-01-02T05:00:46.423Z,1027.07
2019-01-02T05:01:46.409Z,1027.05
2019-01-02T05:02:46.402Z,1027.02
2019-01-02T05:03:46.388Z,1027.09
2019-01-02T05:04:46.388Z,1027.03
2019-01-02T05:05:46.367Z,1027.00
2019-01-02T05:06:46.354Z,1027.08
2019-01-02T05:07:46.345Z,1027.03
2019-01-02T05:08:46.333Z,1027.00
2019-01-02T05:09:46.331Z,1026.95
2019-01-02T05:10:46.312Z,1027.02
2019-01-02T05:11:46.300Z,1026.94
2019-01-02T05:12:46.289Z,1026.98
2019-01-02T05:13:46.277Z,1027.10
2019-01-02T05:14:46.274Z,1027.08
2019-01-02T05:15:46.254Z,1027.14
2019-01-02T05:16:46.244Z,1027.11
2019-01-02T05:17:46.230Z,1027.14
2019-01-02T05:18:46.220Z,1027.11
2019-01-02T05:19:46.229Z,1027.13
2019-01-02T05:20:46.196Z,1027.12
2019-01-02T05:21:46.187Z,1027.18
2019-01-02T05:22:46.175Z,1027.19
2019-01-02T05:23:46.166Z,1027.22
2019-01-02T05:24:46.153Z,1027.20
2019-01-02T05:25:46.153Z,1027.19
2019-01-02T05:26:46.130Z,1027.24
2019-01-02T05:27:46.120Z,1027.22
2019-01-02T05:28:46.108Z,1027.22
2019-01-02T05:29:46.098Z,1027.24
2019-01-02T05:30:46.095Z,1027.23
2019-01-02T05:31:46.074Z,1027.21
2019-01-02T05:32:46.064Z,1027.25
2019-01-02T05:33:46.051Z,1027.19
2019-01-02T05:34:46.040Z,1027.16
2019-01-02T05:35:46.048Z,1027.25
2019-01-02T05:36:46.017Z,1027.26
2019-01-02T05:37:46.007Z,1027.25
2019-01-02T05:38:45.999Z,1027.29
2019-01-02T05:39:45.990Z,1027.20
2019-01-02T05:40:45.974Z,1027.33
2019-01-02T05:41:45.971Z,1027.27
2019-01-02T05:42:45.951Z,1027.34
2019-01-02T05:43:45.940Z,1027.41
2019-01-02T05:44:45.927Z,1027.32
2019-01-02T05:45:45.917Z,1027.37
2019-01-02T05:46:45.915Z,1027.44
2019-01-02T05:47:45.899Z,1027.43
2019-01-02T05:48:45.884Z,1027.37
2019-01-02T05:49:45.872Z,1027.40
2019-01-02T05:50:45.865Z,1027.35
2019-01-02T05:51:45.858Z,1027.30
2019-01-02T05:52:45.841Z,1027.35
2019-01-02T05:53:45.828Z,1027.29
2019-01-02T05:54:45.817Z,1027.36
2019-01-02T05:55:45.805Z,1027.41
2019-01-02T05:56:45.860Z,1027.39
2019-01-02T05:57:45.783Z,1027.30
2019-01-02T05:58:45.772Z,1027.36
2019-01-02T05:59:45.763Z,1027.33
2019-01-02T06:00:45.750Z,1027.34
2019-01-02T06:01:45.738Z,1027.34
2019-01-02T06:02:45.739Z,1027.40
2019-01-02T06:03:45.719Z,1027.47
2019-01-02T06:04:45.735Z,1027.34
2019-01-02T06:05:45.694Z,1027.47
2019-01-02T06:06:45.682Z,1027.31
2019-01-02T06:07:45.685Z,1027.40
2019-01-02T06:08:45.660Z,1027.45
2019-01-02T06:09:45.651Z,1027.34
2019-01-02T06:10:45.637Z,1027.51
2019-01-02T06:11:45.626Z,1027.45
2019-01-02T06:12:45.625Z,1027.45
2019-01-02T06:13:45.606Z,1027.46
2019-01-02T06:14:45.593Z,1027.51
2019-01-02T06:15:45.583Z,1027.49
2019-01-02T06:16:45.571Z,1027.45
2019-01-02T06:17:45.579Z,1027.49
2019-01-02T06:18:45.548Z,1027.56
2019-01-02T06:19:45.538Z,1027.48
2019-01-02T06:20:45.526Z,1027.51
2019-01-02T06:21:45.528Z,1027.49
2019-01-02T06:22:45.504Z,1027.54
2019-01-02T06:23:45.503Z,1027.51
2019-01-02T06:24:45.481Z,1027.55
2019-01-02T06:25:45.470Z,1027.61
2019-01-02T06:26:45.458Z,1027.70
2019-01-02T06:27:45.449Z,1027.60
2019-01-02T06:28:45.447Z,1027.65
2019-01-02T06:29:45.425Z,1027.62
2019-01-02T06:30:45.416Z,1027.69
2019-01-02T06:31:45.403Z,1027.62
2019-01-02T06:32:45.393Z,1027.67
2019-01-02T06:33:45.393Z,1027.62
2019-01-02T06:34:45.370Z,1027.54
2019-01-02T06:35:45.361Z,1027.54
2019-01-02T06:36:45.347Z,1027.58
2019-01-02T06:37:45.337Z,1027.59
2019-01-02T06:38:45.334Z,1027.57
2019-01-02T06:39:45.314Z,1027.62
2019-01-02T06:40:45.305Z,1027.58
2019-01-02T06:41:45.291Z,1027.50
2019-01-02T06:42:45.282Z,1027.58
2019-01-02T06:43:45.289Z,1027.58
2019-01-02T06:44:45.259Z,1027.61
2019-01-02T06:45:45.247Z,1027.56
2019-01-02T06:46:45.242Z,1027.55
2019-01-02T06:47:45.227Z,1027.53
2019-01-02T06:48:45.215Z,1027.59
2019-01-02T06:49:45.214Z,1027.60
2019-01-02T06:50:45.191Z,1027.57
2019-01-02T06:51:45.180Z,1027.60
2019-01-02T06:52:45.169Z,1027.57
2019-01-02T06:53:45.157Z,1027.61
2019-01-02T06:54:45.155Z,1027.66
2019-01-02T06:55:45.137Z,1027.66
2019-01-02T06:56:45.123Z,1027.70
2019-01-02T06:57:45.112Z,1027.73
2019-01-02T06:58:45.106Z,1027.78
2019-01-02T06:59:45.101Z,1027.76
2019-01-02T07:00:45.079Z,1027.74
2019-01-02T07:01:45.070Z,1027.74
2019-01-02T07:02:45.061Z,1027.79
2019-01-02T07:03:45.045Z,1027.76
2019-01-02T07:04:45.043Z,1027.81
2019-01-02T07:05:45.023Z,1027.84
2019-01-02T07:06:45.012Z,1027.89
2019-01-02T07:07:45.000Z,1027.94
2019-01-02T07:08:44.990Z,1027.93
2019-01-02T07:09:45.000Z,1028.01
2019-01-02T07:10:44.971Z,1028.00
2019-01-02T07:11:44.958Z,1028.03
2019-01-02T07:12:44.945Z,1028.05
2019-01-02T07:13:44.935Z,1028.06
2019-01-02T07:14:44.925Z,1028.04
2019-01-02T07:15:44.922Z,1028.05
2019-01-02T07:16:44.901Z,1028.01
2019-01-02T07:17:44.891Z,1028.02
2019-01-02T07:18:44.879Z,1028.04
2019-01-02T07:19:44.868Z,1028.06
2019-01-02T07:20:44.877Z,1028.04
2019-01-02T07:21:44.847Z,1028.04
2019-01-02T07:22:44.839Z,1028.04
2019-01-02T07:23:44.825Z,1028.04
2019-01-02T07:24:44.816Z,1028.03
2019-01-02T07:25:44.803Z,1028.14
2019-01-02T07:26:44.798Z,1028.07
2019-01-02T07:27:44.779Z,1028.03
2019-01-02T07:28:44.767Z,1028.14
2019-01-02T07:29:44.755Z,1028.19
2019-01-02T07:30:44.745Z,1028.18
2019-01-02T07:31:44.743Z,1028.29
2019-01-02T07:32:44.722Z,1028.25
2019-01-02T07:33:44.716Z,1028.28
2019-01-02T07:34:44.700Z,1028.26
2019-01-02T07:35:44.689Z,1028.28
2019-01-02T07:36:44.696Z,1028.22
2019-01-02T07:37:44.666Z,1028.24
2019-01-02T07:38:44.655Z,1028.29
2019-01-02T07:39:44.642Z,1028.33
2019-01-02T07:40:44.632Z,1028.40
2019-01-02T07:41:44.622Z,1028.35
2019-01-02T07:42:44.618Z,1028.41
2019-01-02T07:43:44.599Z,1028.37
2019-01-02T07:44:44.587Z,1028.41
2019-01-02T07:45:44.580Z,1028.39
2019-01-02T07:46:44.565Z,1028.42
2019-01-02T07:47:44.562Z,1028.45
2019-01-02T07:48:44.542Z,1028.50
2019-01-02T07:49:44.531Z,1028.47
2019-01-02T07:50:44.521Z,1028.38
2019-01-02T07:51:44.509Z,1028.45
2019-01-02T07:52:44.517Z,1028.55
2019-01-02T07:53:44.487Z,1028.55
2019-01-02T07:54:44.476Z,1028.62
2019-01-02T07:55:44.463Z,1028.61
2019-01-02T07:56:44.453Z,1028.55
2019-01-02T07:57:44.442Z,1028.63
2019-01-02T07:58:44.439Z,1028.56
2019-01-02T07:59:44.419Z,1028.66
2019-01-02T08:00:44.408Z,1028.66
2019-01-02T08:01:44.395Z,1028.63
2019-01-02T08:02:44.385Z,1028.61
2019-01-02T08:03:44.384Z,1028.65
2019-01-02T08:04:44.362Z,1028.62
2019-01-02T08:05:44.352Z,1028.53
2019-01-02T08:06:44.340Z,1028.64
2019-01-02T08:07:44.328Z,1028.64
2019-01-02T08:08:44.336Z,1028.70
2019-01-02T08:09:44.307Z,1028.67
2019-01-02T08:10:44.295Z,1028.69
2019-01-02T08:11:44.284Z,1028.71
2019-01-02T08:12:44.270Z,1028.64
2019-01-02T08:13:44.262Z,1028.68
2019-01-02T08:14:44.259Z,1028.61
2019-01-02T08:15:44.238Z,1028.63
2019-01-02T08:16:44.228Z,1028.66
2019-01-02T08:17:44.217Z,1028.66
2019-01-02T08:18:44.205Z,1028.67
2019-01-02T08:19:44.200Z,1028.69
2019-01-02T08:20:44.182Z,1028.73
2019-01-02T08:21:44.171Z,1028.79
2019-01-02T08:22:44.160Z,1028.74
2019-01-02T08:23:44.146Z,1028.78
2019-01-02T08:24:44.154Z,1028.73
2019-01-02T08:25:44.125Z,1028.79
2019-01-02T08:26:44.115Z,1028.79
2019-01-02T08:27:44.105Z,1028.81
2019-01-02T08:28:44.092Z,1028.78
2019-01-02T08:29:44.094Z,1028.87
2019-01-02T08:30:44.078Z,1028.80
2019-01-02T08:31:44.060Z,1028.82
2019-01-02T08:32:44.047Z,1028.76
2019-01-02T08:33:44.037Z,1028.77
2019-01-02T08:34:44.025Z,1028.74
2019-01-02T08:35:44.033Z,1028.76
2019-01-02T08:36:44.003Z,1028.74
2019-01-02T08:37:43.991Z,1028.73
2019-01-02T08:38:43.980Z,1028.74
2019-01-02T08:39:43.969Z,1028.85
2019-01-02T08:40:43.980Z,1028.77
2019-01-02T08:41:43.949Z,1028.84
2019-01-02T08:42:43.935Z,1028.74
2019-01-02T08:43:43.925Z,1028.83
2019-01-02T08:44:43.914Z,1028.90
2019-01-02T08:45:43.905Z,1028.85
2019-01-02T08:46:43.899Z,1028.88
2019-01-02T08:47:43.881Z,1028.82
2019-01-02T08:48:43.869Z,1028.82
2019-01-02T08:49:43.858Z,1028.87
2019-01-02T08:50:43.848Z,1028.81
2019-01-02T08:51:43.864Z,1028.81
2019-01-02T08:52:43.830Z,1028.88
2019-01-02T08:53:43.815Z,1028.75
2019-01-02T08:54:43.804Z,1028.80
2019-01-02T08:55:43.793Z,1028.85
2019-01-02T08:56:43.780Z,1028.89
2019-01-02T08:57:43.793Z,1028.87
2019-01-02T08:58:43.760Z,1028.90
2019-01-02T08:59:43.748Z,1028.89
2019-01-02T09:00:43.737Z,1028.84
2019-01-02T09:01:43.728Z,1028.87
2019-01-02T09:02:43.713Z,1028.88
2019-01-02T09:03:43.710Z,1029.02
2019-01-02T09:04:43.693Z,1029.03
2019-01-02T09:05:43.681Z,1029.05
2019-01-02T09:06:43.673Z,1029.05
2019-01-02T09:07:43.659Z,1029.13
2019-01-02T09:08:43.656Z,1029.02
2019-01-02T09:09:43.637Z,1029.09
2019-01-02T09:10:43.625Z,1029.16
2019-01-02T09:11:43.613Z,1029.22
2019-01-02T09:12:43.602Z,1029.23
2019-01-02T09:13:43.609Z,1029.27
2019-01-02T09:14:43.579Z,1029.27
2019-01-02T09:15:43.568Z,1029.28
2019-01-02T09:16:43.557Z,1029.29
2019-01-02T09:17:43.545Z,1029.20
2019-01-02T09:18:43.534Z,1029.21
2019-01-02T09:19:43.544Z,1029.21
2019-01-02T09:20:43.513Z,1029.22
2019-01-02T09:21:43.502Z,1029.26
2019-01-02T09:22:43.489Z,1029.23
2019-01-02T09:23:43.480Z,1029.34
2019-01-02T09:24:43.469Z,1029.29
2019-01-02T09:25:43.466Z,1029.27
2019-01-02T09:26:43.445Z,1029.29
2019-01-02T09:27:43.434Z,1029.28
2019-01-02T09:28:43.422Z,1029.35
2019-01-02T09:29:43.411Z,1029.36
2019-01-02T09:30:43.410Z,1029.43
2019-01-02T09:31:43.392Z,1029.40
2019-01-02T09:32:43.377Z,1029.40
2019-01-02T09:33:43.366Z,1029.38
2019-01-02T09:34:43.356Z,1029.46
2019-01-02T09:35:43.378Z,1029.42
2019-01-02T09:36:43.337Z,1029.55
2019-01-02T09:37:43.324Z,1029.41
2019-01-02T09:38:43.310Z,1029.42
2019-01-02T09:39:43.999Z,1029.48
2019-01-02T09:40:43.330Z,1029.36
2019-01-02T09:41:43.298Z,1029.39
2019-01-02T09:42:43.267Z,1029.51
2019-01-02T09:43:43.254Z,1029.44
2019-01-02T09:44:43.242Z,1029.48
2019-01-02T09:45:43.232Z,1029.39
2019-01-02T09:46:43.221Z,1029.32
2019-01-02T09:47:43.222Z,1029.40
2019-01-02T09:48:43.201Z,1029.39
2019-01-02T09:49:43.189Z,1029.44
2019-01-02T09:50:43.183Z,1029.27
2019-01-02T09:51:43.166Z,1029.37
2019-01-02T09:52:43.162Z,1029.37
2019-01-02T09:53:43.144Z,1029.42
2019-01-02T09:54:43.133Z,1029.34
2019-01-02T09:55:43.122Z,1029.49
2019-01-02T09:56:43.109Z,1029.44
2019-01-02T09:57:43.118Z,1029.39
2019-01-02T09:58:43.087Z,1029.53
2019-01-02T09:59:43.078Z,1029.48
2019-01-02T10:00:43.066Z,1029.50
2019-01-02T10:01:43.053Z,1029.48
2019-01-02T10:02:43.042Z,1029.53
2019-01-02T10:03:43.039Z,1029.46
2019-01-02T10:04:43.020Z,1029.48
2019-01-02T10:05:43.010Z,1029.42
2019-01-02T10:06:42.997Z,1029.49
2019-01-02T10:07:42.987Z,1029.50
2019-01-02T10:08:43.021Z,1029.46
2019-01-02T10:09:42.963Z,1029.46
2019-01-02T10:10:42.952Z,1029.35
2019-01-02T10:11:42.941Z,1029.43
2019-01-02T10:12:42.931Z,1029.37
2019-01-02T10:13:42.936Z,1029.46
2019-01-02T10:14:42.906Z,1029.48
2019-01-02T10:15:42.896Z,1029.44
2019-01-02T10:16:42.884Z,1029.51
2019-01-02T10:17:42.874Z,1029.43
2019-01-02T10:18:42.864Z,1029.49
2019-01-02T10:19:42.862Z,1029.46
2019-01-02T10:20:43.973Z,1029.39
2019-01-02T10:21:42.830Z,1029.44
2019-01-02T10:22:42.816Z,1029.38
2019-01-02T10:23:42.810Z,1029.30
2019-01-02T10:24:42.802Z,1029.39
2019-01-02T10:25:42.789Z,1029.36
2019-01-02T10:26:42.774Z,1029.34
2019-01-02T10:27:42.760Z,1029.35
2019-01-02T10:28:42.756Z,1029.33
2019-01-02T10:29:42.760Z,1029.40
2019-01-02T10:30:42.727Z,1029.35
2019-01-02T10:31:42.717Z,1029.32
2019-01-02T10:32:42.706Z,1029.27
2019-01-02T10:33:42.697Z,1029.32
2019-01-02T10:34:42.685Z,1029.27
2019-01-02T10:35:42.685Z,1029.23
2019-01-02T10:36:42.664Z,1029.22
2019-01-02T10:37:42.652Z,1029.21
2019-01-02T10:38:42.641Z,1029.31
2019-01-02T10:39:42.629Z,1029.30
2019-01-02T10:40:42.629Z,1029.34
2019-01-02T10:41:42.607Z,1029.27
2019-01-02T10:42:42.595Z,1029.26
2019-01-02T10:43:42.585Z,1029.28
2019-01-02T10:44:42.573Z,1029.17
2019-01-02T10:45:42.576Z,1029.21
2019-01-02T10:46:42.553Z,1029.24
2019-01-02T10:47:42.541Z,1029.25
2019-01-02T10:48:42.530Z,1029.29
2019-01-02T10:49:42.520Z,1029.28
2019-01-02T10:50:42.510Z,1029.28
2019-01-02T10:51:42.506Z,1029.25
2019-01-02T10:52:42.486Z,1029.34
2019-01-02T10:53:42.474Z,1029.42
2019-01-02T10:54:42.463Z,1029.38
2019-01-02T10:55:42.453Z,1029.39
2019-01-02T10:56:42.450Z,1029.46
2019-01-02T10:57:42.433Z,1029.41
2019-01-02T10:58:42.421Z,1029.39
2019-01-02T10:59:42.408Z,1029.35
2019-01-02T11:00:42.406Z,1029.34
2019-01-02T11:01:42.396Z,1029.32
2019-01-02T11:02:42.386Z,1029.37
2019-01-02T11:03:42.363Z,1029.44
2019-01-02T11:04:42.353Z,1029.36
2019-01-02T11:05:42.344Z,1029.39
2019-01-02T11:06:42.343Z,1029.37
2019-01-02T11:07:42.319Z,1029.36
2019-01-02T11:08:42.308Z,1029.25
2019-01-02T11:09:42.297Z,1029.37
2019-01-02T11:10:42.287Z,1029.35
2019-01-02T11:11:42.275Z,1029.39
2019-01-02T11:12:42.273Z,1029.42
2019-01-02T11:13:42.265Z,1029.45
2019-01-02T11:14:42.244Z,1029.39
2019-01-02T11:15:42.235Z,1029.44
2019-01-02T11:16:42.219Z,1029.44
2019-01-02T11:17:42.364Z,1029.43
2019-01-02T11:18:42.198Z,1029.44
2019-01-02T11:19:42.187Z,1029.50
2019-01-02T11:20:42.175Z,1029.46
2019-01-02T11:21:42.165Z,1029.48
2019-01-02T11:22:42.153Z,1029.47
2019-01-02T11:23:42.152Z,1029.46
2019-01-02T11:24:42.133Z,1029.51
2019-01-02T11:25:42.119Z,1029.48
2019-01-02T11:26:42.110Z,1029.51
2019-01-02T11:27:42.099Z,1029.46
2019-01-02T11:28:42.099Z,1029.61
2019-01-02T11:29:42.075Z,1029.57
2019-01-02T11:30:42.066Z,1029.60
2019-01-02T11:31:42.053Z,1029.60
2019-01-02T11:32:42.042Z,1029.55
2019-01-02T11:33:42.035Z,1029.56
2019-01-02T11:34:42.026Z,1029.55
2019-01-02T11:35:42.008Z,1029.57
2019-01-02T11:36:41.999Z,1029.49
2019-01-02T11:37:41.986Z,1029.56
2019-01-02T11:38:41.977Z,1029.53
2019-01-02T11:39:41.971Z,1029.52
2019-01-02T11:40:41.952Z,1029.60
2019-01-02T11:41:41.944Z,1029.50
2019-01-02T11:42:41.933Z,1029.48
2019-01-02T11:43:41.917Z,1029.42
2019-01-02T11:44:41.914Z,1029.44
2019-01-02T11:45:41.895Z,1029.41
2019-01-02T11:46:41.886Z,1029.44
2019-01-02T11:47:41.872Z,1029.39
2019-01-02T11:48:41.866Z,1029.41
2019-01-02T11:49:41.860Z,1029.44
2019-01-02T11:50:41.840Z,1029.42
2019-01-02T11:51:41.829Z,1029.37
2019-01-02T11:52:41.818Z,1029.39
2019-01-02T11:53:41.805Z,1029.34
2019-01-02T11:54:41.805Z,1029.38
2019-01-02T11:55:41.784Z,1029.36
2019-01-02T11:56:41.776Z,1029.31
2019-01-02T11:57:41.761Z,1029.30
2019-01-02T11:58:41.750Z,1029.32
2019-01-02T11:59:41.755Z,1029.35
2019-01-02T12:00:41.727Z,1029.38
2019-01-02T12:01:41.716Z,1029.36
2019-01-02T12:02:41.705Z,1029.27
2019-01-02T12:03:41.694Z,1029.37
2019-01-02T12:04:41.684Z,1029.37
2019-01-02T12:05:41.722Z,1029.39